sensor_id;sensor_type;location;lat;lon;timestamp;pressure;altitude;pressure_sealevel;temperature
53667;BMP280;39568;51.026;5.468;2023-08-01T00:01:52;99134.53;;;17.32
53667;BMP280;39568;51.026;5.468;2023-08-01T00:04:18;99122.91;;;17.29
53667;BMP280;39568;51.026;5.468;2023-08-01T00:06:45;99116.00;;;17.26
53667;BMP280;39568;51.026;5.468;2023-08-01T00:09:12;99119.53;;;17.29
53667;BMP280;39568;51.026;5.468;2023-08-01T00:11:38;99112.06;;;17.27
53667;BMP280;39568;51.026;5.468;2023-08-01T00:14:05;99109.25;;;17.25
53667;BMP280;39568;51.026;5.468;2023-08-01T00:16:33;99099.44;;;17.30
53667;BMP280;39568;51.026;5.468;2023-08-01T00:19:00;99108.09;;;17.28
53667;BMP280;39568;51.026;5.468;2023-08-01T00:21:27;99106.53;;;17.25
53667;BMP280;39568;51.026;5.468;2023-08-01T00:23:56;99110.38;;;17.22
53667;BMP280;39568;51.026;5.468;2023-08-01T00:26:22;99105.00;;;17.22
53667;BMP280;39568;51.026;5.468;2023-08-01T00:28:49;99108.53;;;17.15
53667;BMP280;39568;51.026;5.468;2023-08-01T00:31:16;99111.66;;;17.12
53667;BMP280;39568;51.026;5.468;2023-08-01T00:33:44;99108.31;;;17.02
53667;BMP280;39568;51.026;5.468;2023-08-01T00:36:10;99093.28;;;16.98
53667;BMP280;39568;51.026;5.468;2023-08-01T00:38:37;99083.00;;;16.95
53667;BMP280;39568;51.026;5.468;2023-08-01T00:41:04;99083.69;;;16.95
53667;BMP280;39568;51.026;5.468;2023-08-01T00:43:30;99086.97;;;16.94
53667;BMP280;39568;51.026;5.468;2023-08-01T00:46:00;99092.47;;;16.96
53667;BMP280;39568;51.026;5.468;2023-08-01T00:48:27;99084.84;;;16.92
53667;BMP280;39568;51.026;5.468;2023-08-01T00:50:56;99077.78;;;16.87
53667;BMP280;39568;51.026;5.468;2023-08-01T00:53:23;99081.88;;;16.79
53667;BMP280;39568;51.026;5.468;2023-08-01T00:55:51;99078.91;;;16.75
53667;BMP280;39568;51.026;5.468;2023-08-01T00:58:17;99084.47;;;16.67
53667;BMP280;39568;51.026;5.468;2023-08-01T01:00:45;99087.13;;;16.67
53667;BMP280;39568;51.026;5.468;2023-08-01T01:03:11;99077.13;;;16.68
53667;BMP280;39568;51.026;5.468;2023-08-01T01:05:42;99084.59;;;16.69
53667;BMP280;39568;51.026;5.468;2023-08-01T01:08:11;99101.41;;;16.70
53667;BMP280;39568;51.026;5.468;2023-08-01T01:10:37;99087.84;;;16.68
53667;BMP280;39568;51.026;5.468;2023-08-01T01:13:04;99096.91;;;16.63
53667;BMP280;39568;51.026;5.468;2023-08-01T01:15:31;99096.22;;;16.62
53667;BMP280;39568;51.026;5.468;2023-08-01T01:17:58;99096.63;;;16.59
53667;BMP280;39568;51.026;5.468;2023-08-01T01:20:26;99099.16;;;16.57
53667;BMP280;39568;51.026;5.468;2023-08-01T01:22:54;99096.75;;;16.51
53667;BMP280;39568;51.026;5.468;2023-08-01T01:25:22;99084.34;;;16.46
53667;BMP280;39568;51.026;5.468;2023-08-01T01:27:51;99074.59;;;16.41
53667;BMP280;39568;51.026;5.468;2023-08-01T01:30:19;99077.94;;;16.32
53667;BMP280;39568;51.026;5.468;2023-08-01T01:32:46;99090.00;;;16.31
53667;BMP280;39568;51.026;5.468;2023-08-01T01:35:13;99093.94;;;16.30
53667;BMP280;39568;51.026;5.468;2023-08-01T01:37:40;99091.50;;;16.25
53667;BMP280;39568;51.026;5.468;2023-08-01T01:40:08;99092.94;;;16.26
53667;BMP280;39568;51.026;5.468;2023-08-01T01:42:36;99088.41;;;16.28
53667;BMP280;39568;51.026;5.468;2023-08-01T01:45:03;99077.66;;;16.28
53667;BMP280;39568;51.026;5.468;2023-08-01T01:47:30;99092.38;;;16.27
53667;BMP280;39568;51.026;5.468;2023-08-01T01:49:56;99099.56;;;16.25
53667;BMP280;39568;51.026;5.468;2023-08-01T01:52:23;99091.22;;;16.20
53667;BMP280;39568;51.026;5.468;2023-08-01T01:54:50;99090.91;;;16.16
53667;BMP280;39568;51.026;5.468;2023-08-01T01:57:18;99089.09;;;16.09
53667;BMP280;39568;51.026;5.468;2023-08-01T01:59:44;99085.41;;;16.05
53667;BMP280;39568;51.026;5.468;2023-08-01T02:02:11;99094.88;;;15.96
53667;BMP280;39568;51.026;5.468;2023-08-01T02:04:38;99091.44;;;15.86
53667;BMP280;39568;51.026;5.468;2023-08-01T02:07:05;99091.88;;;15.83
53667;BMP280;39568;51.026;5.468;2023-08-01T02:09:32;99097.22;;;15.83
53667;BMP280;39568;51.026;5.468;2023-08-01T02:11:58;99092.97;;;15.80
53667;BMP280;39568;51.026;5.468;2023-08-01T02:14:27;99083.69;;;15.81
53667;BMP280;39568;51.026;5.468;2023-08-01T02:16:53;99082.69;;;15.76
53667;BMP280;39568;51.026;5.468;2023-08-01T02:19:20;99086.06;;;15.77
53667;BMP280;39568;51.026;5.468;2023-08-01T02:21:46;99100.31;;;15.79
53667;BMP280;39568;51.026;5.468;2023-08-01T02:24:13;99100.63;;;15.83
53667;BMP280;39568;51.026;5.468;2023-08-01T02:26:40;99101.59;;;15.78
53667;BMP280;39568;51.026;5.468;2023-08-01T02:29:06;99091.69;;;15.71
53667;BMP280;39568;51.026;5.468;2023-08-01T02:31:34;99098.88;;;15.69
53667;BMP280;39568;51.026;5.468;2023-08-01T02:34:01;99091.06;;;15.63
53667;BMP280;39568;51.026;5.468;2023-08-01T02:36:28;99102.94;;;15.60
53667;BMP280;39568;51.026;5.468;2023-08-01T02:38:55;99113.66;;;15.60
53667;BMP280;39568;51.026;5.468;2023-08-01T02:41:21;99121.84;;;15.62
53667;BMP280;39568;51.026;5.468;2023-08-01T02:43:48;99117.06;;;15.61
53667;BMP280;39568;51.026;5.468;2023-08-01T02:46:15;99113.47;;;15.58
53667;BMP280;39568;51.026;5.468;2023-08-01T02:48:43;99111.22;;;15.55
53667;BMP280;39568;51.026;5.468;2023-08-01T02:51:09;99122.50;;;15.53
53667;BMP280;39568;51.026;5.468;2023-08-01T02:53:36;99119.97;;;15.55
53667;BMP280;39568;51.026;5.468;2023-08-01T02:56:05;99122.50;;;15.53
53667;BMP280;39568;51.026;5.468;2023-08-01T02:58:34;99124.31;;;15.51
53667;BMP280;39568;51.026;5.468;2023-08-01T03:01:00;99137.59;;;15.58
53667;BMP280;39568;51.026;5.468;2023-08-01T03:03:27;99131.25;;;15.54
53667;BMP280;39568;51.026;5.468;2023-08-01T03:05:55;99131.94;;;15.54
53667;BMP280;39568;51.026;5.468;2023-08-01T03:08:22;99123.91;;;15.54
53667;BMP280;39568;51.026;5.468;2023-08-01T03:10:48;99130.88;;;15.57
53667;BMP280;39568;51.026;5.468;2023-08-01T03:13:15;99130.88;;;15.57
53667;BMP280;39568;51.026;5.468;2023-08-01T03:15:42;99140.16;;;15.56
53667;BMP280;39568;51.026;5.468;2023-08-01T03:18:09;99132.97;;;15.59
53667;BMP280;39568;51.026;5.468;2023-08-01T03:20:35;99134.81;;;15.56
53667;BMP280;39568;51.026;5.468;2023-08-01T03:23:04;99137.31;;;15.54
53667;BMP280;39568;51.026;5.468;2023-08-01T03:25:30;99138.75;;;15.55
53667;BMP280;39568;51.026;5.468;2023-08-01T03:27:58;99130.69;;;15.55
53667;BMP280;39568;51.026;5.468;2023-08-01T03:30:25;99129.28;;;15.54
53667;BMP280;39568;51.026;5.468;2023-08-01T03:32:52;99129.44;;;15.56
53667;BMP280;39568;51.026;5.468;2023-08-01T03:35:18;99129.56;;;15.58
53667;BMP280;39568;51.026;5.468;2023-08-01T03:37:45;99131.53;;;15.58
53667;BMP280;39568;51.026;5.468;2023-08-01T03:40:13;99133.56;;;15.57
53667;BMP280;39568;51.026;5.468;2023-08-01T03:42:40;99128.72;;;15.56
53667;BMP280;39568;51.026;5.468;2023-08-01T03:45:08;99129.44;;;15.56
53667;BMP280;39568;51.026;5.468;2023-08-01T03:47:35;99130.16;;;15.57
53667;BMP280;39568;51.026;5.468;2023-08-01T03:50:02;99134.38;;;15.60
53667;BMP280;39568;51.026;5.468;2023-08-01T03:52:29;99131.16;;;15.61
53667;BMP280;39568;51.026;5.468;2023-08-01T03:54:56;99135.81;;;15.61
53667;BMP280;39568;51.026;5.468;2023-08-01T03:57:24;99134.94;;;15.58
53667;BMP280;39568;51.026;5.468;2023-08-01T03:59:51;99124.91;;;15.59
53667;BMP280;39568;51.026;5.468;2023-08-01T04:02:17;99123.63;;;15.50
53667;BMP280;39568;51.026;5.468;2023-08-01T04:04:44;99121.31;;;15.46
53667;BMP280;39568;51.026;5.468;2023-08-01T04:07:11;99111.75;;;15.43
53667;BMP280;39568;51.026;5.468;2023-08-01T04:09:37;99111.44;;;15.39
53667;BMP280;39568;51.026;5.468;2023-08-01T04:12:05;99113.78;;;15.35
53667;BMP280;39568;51.026;5.468;2023-08-01T04:14:34;99127.38;;;15.37
53667;BMP280;39568;51.026;5.468;2023-08-01T04:17:01;99144.59;;;15.44
53667;BMP280;39568;51.026;5.468;2023-08-01T04:19:28;99126.00;;;15.46
53667;BMP280;39568;51.026;5.468;2023-08-01T04:21:54;99136.03;;;15.45
53667;BMP280;39568;51.026;5.468;2023-08-01T04:24:21;99123.31;;;15.46
53667;BMP280;39568;51.026;5.468;2023-08-01T04:26:50;99129.06;;;15.42
53667;BMP280;39568;51.026;5.468;2023-08-01T04:29:17;99121.75;;;15.43
53667;BMP280;39568;51.026;5.468;2023-08-01T04:31:45;99131.34;;;15.46
53667;BMP280;39568;51.026;5.468;2023-08-01T04:34:11;99130.25;;;15.49
53667;BMP280;39568;51.026;5.468;2023-08-01T04:36:38;99134.72;;;15.46
53667;BMP280;39568;51.026;5.468;2023-08-01T04:39:05;99132.03;;;15.46
53667;BMP280;39568;51.026;5.468;2023-08-01T04:41:31;99117.41;;;15.47
53667;BMP280;39568;51.026;5.468;2023-08-01T04:43:58;99138.53;;;15.43
53667;BMP280;39568;51.026;5.468;2023-08-01T04:46:24;99133.47;;;15.47
53667;BMP280;39568;51.026;5.468;2023-08-01T04:48:53;99145.06;;;15.50
53667;BMP280;39568;51.026;5.468;2023-08-01T04:51:19;99134.09;;;15.56
53667;BMP280;39568;51.026;5.468;2023-08-01T04:53:46;99137.88;;;15.53
53667;BMP280;39568;51.026;5.468;2023-08-01T04:56:13;99141.59;;;15.57
53667;BMP280;39568;51.026;5.468;2023-08-01T04:58:39;99134.13;;;15.65
53667;BMP280;39568;51.026;5.468;2023-08-01T05:01:06;99136.81;;;15.65
53667;BMP280;39568;51.026;5.468;2023-08-01T05:03:33;99131.16;;;15.61
53667;BMP280;39568;51.026;5.468;2023-08-01T05:06:01;99134.69;;;15.64
53667;BMP280;39568;51.026;5.468;2023-08-01T05:08:28;99134.38;;;15.60
53667;BMP280;39568;51.026;5.468;2023-08-01T05:10:55;99142.63;;;15.71
53667;BMP280;39568;51.026;5.468;2023-08-01T05:13:21;99143.88;;;15.70
53667;BMP280;39568;51.026;5.468;2023-08-01T05:15:48;99147.44;;;15.73
53667;BMP280;39568;51.026;5.468;2023-08-01T05:18:16;99157.28;;;15.70
53667;BMP280;39568;51.026;5.468;2023-08-01T05:20:43;99149.25;;;15.70
53667;BMP280;39568;51.026;5.468;2023-08-01T05:23:11;99155.59;;;15.75
53667;BMP280;39568;51.026;5.468;2023-08-01T05:25:38;99156.03;;;15.71
53667;BMP280;39568;51.026;5.468;2023-08-01T05:28:04;99162.28;;;15.83
53667;BMP280;39568;51.026;5.468;2023-08-01T05:30:31;99164.97;;;15.83
53667;BMP280;39568;51.026;5.468;2023-08-01T05:32:58;99166.09;;;15.80
53667;BMP280;39568;51.026;5.468;2023-08-01T05:35:24;99158.75;;;15.81
53667;BMP280;39568;51.026;5.468;2023-08-01T05:37:51;99169.47;;;15.81
53667;BMP280;39568;51.026;5.468;2023-08-01T05:40:19;99161.97;;;15.79
53667;BMP280;39568;51.026;5.468;2023-08-01T05:42:46;99165.94;;;15.78
53667;BMP280;39568;51.026;5.468;2023-08-01T05:45:12;99171.34;;;15.88
53667;BMP280;39568;51.026;5.468;2023-08-01T05:47:39;99171.88;;;15.86
53667;BMP280;39568;51.026;5.468;2023-08-01T05:50:06;99170.06;;;15.89
53667;BMP280;39568;51.026;5.468;2023-08-01T05:52:34;99178.59;;;16.04
53667;BMP280;39568;51.026;5.468;2023-08-01T05:55:00;99180.78;;;16.15
53667;BMP280;39568;51.026;5.468;2023-08-01T05:57:28;99185.66;;;16.09
53667;BMP280;39568;51.026;5.468;2023-08-01T05:59:55;99181.31;;;16.14
53667;BMP280;39568;51.026;5.468;2023-08-01T06:02:22;99189.59;;;16.08
53667;BMP280;39568;51.026;5.468;2023-08-01T06:04:49;99180.78;;;16.15
53667;BMP280;39568;51.026;5.468;2023-08-01T06:07:16;99193.47;;;16.25
53667;BMP280;39568;51.026;5.468;2023-08-01T06:09:48;99190.06;;;16.14
53667;BMP280;39568;51.026;5.468;2023-08-01T06:12:15;99189.66;;;16.18
53667;BMP280;39568;51.026;5.468;2023-08-01T06:14:43;99192.09;;;16.33
53667;BMP280;39568;51.026;5.468;2023-08-01T06:17:10;99194.69;;;16.50
53667;BMP280;39568;51.026;5.468;2023-08-01T06:19:36;99194.56;;;16.58
53667;BMP280;39568;51.026;5.468;2023-08-01T06:22:03;99200.31;;;16.45
53667;BMP280;39568;51.026;5.468;2023-08-01T06:24:30;99198.91;;;16.53
53667;BMP280;39568;51.026;5.468;2023-08-01T06:26:57;99196.38;;;16.46
53667;BMP280;39568;51.026;5.468;2023-08-01T06:29:24;99198.59;;;16.40
53667;BMP280;39568;51.026;5.468;2023-08-01T06:31:52;99195.22;;;16.39
53667;BMP280;39568;51.026;5.468;2023-08-01T06:34:18;99191.38;;;16.33
53667;BMP280;39568;51.026;5.468;2023-08-01T06:36:45;99196.38;;;16.46
53667;BMP280;39568;51.026;5.468;2023-08-01T06:39:12;99198.34;;;16.55
53667;BMP280;39568;51.026;5.468;2023-08-01T06:41:38;99200.06;;;16.69
53667;BMP280;39568;51.026;5.468;2023-08-01T06:44:05;99210.78;;;16.79
53667;BMP280;39568;51.026;5.468;2023-08-01T06:46:32;99211.38;;;16.87
53667;BMP280;39568;51.026;5.468;2023-08-01T06:49:00;99206.28;;;16.91
53667;BMP280;39568;51.026;5.468;2023-08-01T06:51:27;99205.84;;;16.75
53667;BMP280;39568;51.026;5.468;2023-08-01T06:53:54;99213.63;;;16.62
53667;BMP280;39568;51.026;5.468;2023-08-01T06:56:20;99211.66;;;16.72
53667;BMP280;39568;51.026;5.468;2023-08-01T06:58:47;99210.22;;;16.71
53667;BMP280;39568;51.026;5.468;2023-08-01T07:01:14;99212.38;;;16.82
53667;BMP280;39568;51.026;5.468;2023-08-01T07:03:41;99215.50;;;16.88
53667;BMP280;39568;51.026;5.468;2023-08-01T07:06:09;99220.44;;;16.82
53667;BMP280;39568;51.026;5.468;2023-08-01T07:08:36;99214.91;;;16.80
53667;BMP280;39568;51.026;5.468;2023-08-01T07:11:02;99217.59;;;16.80
53667;BMP280;39568;51.026;5.468;2023-08-01T07:13:29;99211.94;;;16.76
53667;BMP280;39568;51.026;5.468;2023-08-01T07:15:56;99217.16;;;16.74
53667;BMP280;39568;51.026;5.468;2023-08-01T07:18:22;99221.53;;;16.79
53667;BMP280;39568;51.026;5.468;2023-08-01T07:20:59;99210.78;;;16.79
53667;BMP280;39568;51.026;5.468;2023-08-01T07:23:27;99205.72;;;16.83
53667;BMP280;39568;51.026;5.468;2023-08-01T07:25:53;99218.03;;;17.05
53667;BMP280;39568;51.026;5.468;2023-08-01T07:28:20;99222.13;;;17.16
53667;BMP280;39568;51.026;5.468;2023-08-01T07:30:58;99218.31;;;17.28
53667;BMP280;39568;51.026;5.468;2023-08-01T07:33:25;99219.13;;;17.40
53667;BMP280;39568;51.026;5.468;2023-08-01T07:35:51;99223.06;;;17.39
53667;BMP280;39568;51.026;5.468;2023-08-01T07:38:18;99224.03;;;17.53
53667;BMP280;39568;51.026;5.468;2023-08-01T07:40:46;99231.53;;;17.55
53667;BMP280;39568;51.026;5.468;2023-08-01T07:43:13;99243.00;;;17.55
53667;BMP280;39568;51.026;5.468;2023-08-01T07:45:40;99228.41;;;17.49
53667;BMP280;39568;51.026;5.468;2023-08-01T07:48:07;99239.34;;;17.41
53667;BMP280;39568;51.026;5.468;2023-08-01T07:50:34;99245.13;;;17.57
53667;BMP280;39568;51.026;5.468;2023-08-01T07:53:01;99235.78;;;17.48
53667;BMP280;39568;51.026;5.468;2023-08-01T07:55:27;99237.78;;;17.48
53667;BMP280;39568;51.026;5.468;2023-08-01T07:57:57;99237.31;;;17.70
53667;BMP280;39568;51.026;5.468;2023-08-01T08:00:26;99236.53;;;17.89
53667;BMP280;39568;51.026;5.468;2023-08-01T08:02:53;99241.00;;;17.96
53667;BMP280;39568;51.026;5.468;2023-08-01T08:05:20;99241.91;;;17.89
53667;BMP280;39568;51.026;5.468;2023-08-01T08:07:46;99249.13;;;17.87
53667;BMP280;39568;51.026;5.468;2023-08-01T08:10:13;99249.34;;;18.10
53667;BMP280;39568;51.026;5.468;2023-08-01T08:12:40;99247.72;;;18.16
53667;BMP280;39568;51.026;5.468;2023-08-01T08:15:09;99256.78;;;18.21
53667;BMP280;39568;51.026;5.468;2023-08-01T08:17:42;99254.38;;;18.15
53667;BMP280;39568;51.026;5.468;2023-08-01T08:20:09;99246.31;;;18.15
53667;BMP280;39568;51.026;5.468;2023-08-01T08:22:35;99245.00;;;18.26
53667;BMP280;39568;51.026;5.468;2023-08-01T08:25:02;99256.41;;;18.15
53667;BMP280;39568;51.026;5.468;2023-08-01T08:27:29;99246.47;;;18.17
53667;BMP280;39568;51.026;5.468;2023-08-01T08:29:56;99250.00;;;18.41
53667;BMP280;39568;51.026;5.468;2023-08-01T08:32:24;99255.59;;;18.55
53667;BMP280;39568;51.026;5.468;2023-08-01T08:34:51;99252.81;;;18.43
53667;BMP280;39568;51.026;5.468;2023-08-01T08:37:17;99244.88;;;18.45
53667;BMP280;39568;51.026;5.468;2023-08-01T08:39:44;99260.78;;;18.62
53667;BMP280;39568;51.026;5.468;2023-08-01T08:42:11;99261.31;;;18.70
53667;BMP280;39568;51.026;5.468;2023-08-01T08:44:43;99257.94;;;18.70
53667;BMP280;39568;51.026;5.468;2023-08-01T08:47:10;99259.28;;;18.71
53667;BMP280;39568;51.026;5.468;2023-08-01T08:49:40;99263.94;;;18.59
53667;BMP280;39568;51.026;5.468;2023-08-01T08:52:09;99269.06;;;18.76
53667;BMP280;39568;51.026;5.468;2023-08-01T08:54:36;99264.38;;;18.55
53667;BMP280;39568;51.026;5.468;2023-08-01T08:57:05;99270.97;;;19.06
53667;BMP280;39568;51.026;5.468;2023-08-01T08:59:36;99291.78;;;19.26
53667;BMP280;39568;51.026;5.468;2023-08-01T09:02:04;99260.69;;;19.14
53667;BMP280;39568;51.026;5.468;2023-08-01T09:04:31;99249.88;;;19.14
53667;BMP280;39568;51.026;5.468;2023-08-01T09:07:02;99268.81;;;18.72
53667;BMP280;39568;51.026;5.468;2023-08-01T09:09:29;99269.78;;;18.76
53667;BMP280;39568;51.026;5.468;2023-08-01T09:11:55;99257.56;;;18.96
53667;BMP280;39568;51.026;5.468;2023-08-01T09:14:22;99252.00;;;19.15
53667;BMP280;39568;51.026;5.468;2023-08-01T09:16:49;99254.41;;;19.00
53667;BMP280;39568;51.026;5.468;2023-08-01T09:19:17;99266.41;;;19.08
53667;BMP280;39568;51.026;5.468;2023-08-01T09:21:45;99246.41;;;18.90
53667;BMP280;39568;51.026;5.468;2023-08-01T09:24:15;99261.91;;;19.01
53667;BMP280;39568;51.026;5.468;2023-08-01T09:26:43;99257.19;;;18.90
53667;BMP280;39568;51.026;5.468;2023-08-01T09:29:09;99258.06;;;19.04
53667;BMP280;39568;51.026;5.468;2023-08-01T09:31:39;99262.75;;;19.48
53667;BMP280;39568;51.026;5.468;2023-08-01T09:34:17;99261.47;;;20.19
53667;BMP280;39568;51.026;5.468;2023-08-01T09:36:44;99271.63;;;20.91
53667;BMP280;39568;51.026;5.468;2023-08-01T09:39:17;99258.25;;;20.82
53667;BMP280;39568;51.026;5.468;2023-08-01T09:41:44;99265.03;;;20.94
53667;BMP280;39568;51.026;5.468;2023-08-01T09:44:11;99263.53;;;20.55
53667;BMP280;39568;51.026;5.468;2023-08-01T09:46:38;99251.03;;;20.61
53667;BMP280;39568;51.026;5.468;2023-08-01T09:49:09;99256.19;;;21.71
53667;BMP280;39568;51.026;5.468;2023-08-01T09:51:47;99269.69;;;21.44
53667;BMP280;39568;51.026;5.468;2023-08-01T09:54:18;99257.66;;;21.47
53667;BMP280;39568;51.026;5.468;2023-08-01T09:56:45;99239.91;;;20.55
53667;BMP280;39568;51.026;5.468;2023-08-01T09:59:13;99247.41;;;20.68
53667;BMP280;39568;51.026;5.468;2023-08-01T10:01:44;99250.16;;;21.07
53667;BMP280;39568;51.026;5.468;2023-08-01T10:04:14;99252.13;;;21.32
53667;BMP280;39568;51.026;5.468;2023-08-01T10:06:46;99249.97;;;21.17
53667;BMP280;39568;51.026;5.468;2023-08-01T10:09:17;99249.31;;;21.30
53667;BMP280;39568;51.026;5.468;2023-08-01T10:11:44;99256.59;;;21.14
53667;BMP280;39568;51.026;5.468;2023-08-01T10:14:12;99254.28;;;21.74
53667;BMP280;39568;51.026;5.468;2023-08-01T10:16:40;99254.97;;;21.74
53667;BMP280;39568;51.026;5.468;2023-08-01T10:19:09;99268.59;;;22.17
53667;BMP280;39568;51.026;5.468;2023-08-01T10:21:37;99257.34;;;22.36
53667;BMP280;39568;51.026;5.468;2023-08-01T10:24:05;99265.41;;;20.89
53667;BMP280;39568;51.026;5.468;2023-08-01T10:26:34;99257.81;;;20.74
53667;BMP280;39568;51.026;5.468;2023-08-01T10:29:01;99252.66;;;20.30
53667;BMP280;39568;51.026;5.468;2023-08-01T10:31:28;99255.84;;;21.38
53667;BMP280;39568;51.026;5.468;2023-08-01T10:34:04;99260.06;;;22.36
53667;BMP280;39568;51.026;5.468;2023-08-01T10:36:32;99250.66;;;21.83
53667;BMP280;39568;51.026;5.468;2023-08-01T10:39:01;99257.44;;;21.43
53667;BMP280;39568;51.026;5.468;2023-08-01T10:41:29;99255.72;;;22.74
53667;BMP280;39568;51.026;5.468;2023-08-01T10:44:11;99260.91;;;22.83
53667;BMP280;39568;51.026;5.468;2023-08-01T10:46:48;99271.28;;;22.73
53667;BMP280;39568;51.026;5.468;2023-08-01T10:49:16;99272.75;;;22.47
53667;BMP280;39568;51.026;5.468;2023-08-01T10:51:43;99264.19;;;22.10
53667;BMP280;39568;51.026;5.468;2023-08-01T10:54:20;99278.94;;;22.07
53667;BMP280;39568;51.026;5.468;2023-08-01T10:56:48;99293.22;;;21.80
53667;BMP280;39568;51.026;5.468;2023-08-01T10:59:17;99278.97;;;21.94
53667;BMP280;39568;51.026;5.468;2023-08-01T11:01:45;99256.38;;;21.89
53667;BMP280;39568;51.026;5.468;2023-08-01T11:04:16;99273.97;;;21.36
53667;BMP280;39568;51.026;5.468;2023-08-01T11:06:47;99276.66;;;21.36
53667;BMP280;39568;51.026;5.468;2023-08-01T11:09:18;99282.84;;;21.90
53667;BMP280;39568;51.026;5.468;2023-08-01T11:11:46;99288.09;;;22.86
53667;BMP280;39568;51.026;5.468;2023-08-01T11:14:14;99288.09;;;22.86
53667;BMP280;39568;51.026;5.468;2023-08-01T11:16:43;99289.59;;;23.33
53667;BMP280;39568;51.026;5.468;2023-08-01T11:19:18;99297.78;;;23.82
53667;BMP280;39568;51.026;5.468;2023-08-01T11:21:45;99304.38;;;22.86
53667;BMP280;39568;51.026;5.468;2023-08-01T11:24:12;99296.28;;;22.02
53667;BMP280;39568;51.026;5.468;2023-08-01T11:26:40;99290.66;;;21.57
53667;BMP280;39568;51.026;5.468;2023-08-01T11:29:07;99284.72;;;21.34
53667;BMP280;39568;51.026;5.468;2023-08-01T11:31:34;99281.00;;;21.41
53667;BMP280;39568;51.026;5.468;2023-08-01T11:34:02;99292.09;;;21.72
53667;BMP280;39568;51.026;5.468;2023-08-01T11:36:29;99311.75;;;22.00
53667;BMP280;39568;51.026;5.468;2023-08-01T11:38:56;99308.25;;;21.97
53667;BMP280;39568;51.026;5.468;2023-08-01T11:41:23;99304.22;;;21.98
53667;BMP280;39568;51.026;5.468;2023-08-01T11:43:50;99303.03;;;22.15
53667;BMP280;39568;51.026;5.468;2023-08-01T11:46:17;99310.75;;;22.20
53667;BMP280;39568;51.026;5.468;2023-08-01T11:48:44;99308.94;;;22.11
53667;BMP280;39568;51.026;5.468;2023-08-01T11:51:13;99313.56;;;21.95
53667;BMP280;39568;51.026;5.468;2023-08-01T11:53:40;99307.94;;;21.91
53667;BMP280;39568;51.026;5.468;2023-08-01T11:56:07;99318.19;;;21.93
53667;BMP280;39568;51.026;5.468;2023-08-01T11:58:34;99316.72;;;22.59
53667;BMP280;39568;51.026;5.468;2023-08-01T12:01:05;99322.56;;;22.54
53667;BMP280;39568;51.026;5.468;2023-08-01T12:03:32;99317.72;;;22.52
53667;BMP280;39568;51.026;5.468;2023-08-01T12:06:08;99321.09;;;22.66
53667;BMP280;39568;51.026;5.468;2023-08-01T12:08:38;99328.34;;;22.48
53667;BMP280;39568;51.026;5.468;2023-08-01T12:11:05;99326.25;;;22.47
53667;BMP280;39568;51.026;5.468;2023-08-01T12:13:31;99314.38;;;22.11
53667;BMP280;39568;51.026;5.468;2023-08-01T12:15:58;99323.38;;;22.29
53667;BMP280;39568;51.026;5.468;2023-08-01T12:18:26;99321.25;;;22.41
53667;BMP280;39568;51.026;5.468;2023-08-01T12:20:54;99332.16;;;22.70
53667;BMP280;39568;51.026;5.468;2023-08-01T12:23:21;99312.03;;;22.46
53667;BMP280;39568;51.026;5.468;2023-08-01T12:25:49;99329.19;;;22.24
53667;BMP280;39568;51.026;5.468;2023-08-01T12:28:16;99328.63;;;22.68
53667;BMP280;39568;51.026;5.468;2023-08-01T12:30:43;99332.44;;;23.06
53667;BMP280;39568;51.026;5.468;2023-08-01T12:33:10;99329.72;;;22.20
53667;BMP280;39568;51.026;5.468;2023-08-01T12:35:39;99327.44;;;21.49
53667;BMP280;39568;51.026;5.468;2023-08-01T12:38:06;99328.41;;;21.17
53667;BMP280;39568;51.026;5.468;2023-08-01T12:40:33;99327.31;;;20.96
53667;BMP280;39568;51.026;5.468;2023-08-01T12:43:01;99352.59;;;21.26
53667;BMP280;39568;51.026;5.468;2023-08-01T12:45:28;99337.50;;;21.35
53667;BMP280;39568;51.026;5.468;2023-08-01T12:47:54;99350.41;;;21.75
53667;BMP280;39568;51.026;5.468;2023-08-01T12:50:21;99345.34;;;22.49
53667;BMP280;39568;51.026;5.468;2023-08-01T12:52:48;99337.22;;;22.22
53667;BMP280;39568;51.026;5.468;2023-08-01T12:55:14;99342.94;;;22.41
53667;BMP280;39568;51.026;5.468;2023-08-01T12:57:41;99339.34;;;22.23
53667;BMP280;39568;51.026;5.468;2023-08-01T13:00:10;99359.84;;;22.83
53667;BMP280;39568;51.026;5.468;2023-08-01T13:02:37;99359.63;;;23.84
53667;BMP280;39568;51.026;5.468;2023-08-01T13:05:05;99344.69;;;24.16
53667;BMP280;39568;51.026;5.468;2023-08-01T13:07:31;99346.13;;;23.86
53667;BMP280;39568;51.026;5.468;2023-08-01T13:09:59;99352.34;;;23.26
53667;BMP280;39568;51.026;5.468;2023-08-01T13:12:26;99341.50;;;23.88
53667;BMP280;39568;51.026;5.468;2023-08-01T13:14:53;99353.81;;;24.07
53667;BMP280;39568;51.026;5.468;2023-08-01T13:17:21;99352.44;;;23.74
53667;BMP280;39568;51.026;5.468;2023-08-01T13:19:48;99362.59;;;23.74
53667;BMP280;39568;51.026;5.468;2023-08-01T13:22:15;99360.25;;;23.82
53667;BMP280;39568;51.026;5.468;2023-08-01T13:24:41;99361.50;;;24.12
53667;BMP280;39568;51.026;5.468;2023-08-01T13:27:08;99356.38;;;23.87
53667;BMP280;39568;51.026;5.468;2023-08-01T13:29:35;99348.41;;;23.44
53667;BMP280;39568;51.026;5.468;2023-08-01T13:32:01;99362.44;;;23.70
53667;BMP280;39568;51.026;5.468;2023-08-01T13:34:29;99361.00;;;24.00
53667;BMP280;39568;51.026;5.468;2023-08-01T13:36:56;99356.81;;;23.50
53667;BMP280;39568;51.026;5.468;2023-08-01T13:39:23;99355.19;;;22.85
53667;BMP280;39568;51.026;5.468;2023-08-01T13:41:49;99348.25;;;22.39
53667;BMP280;39568;51.026;5.468;2023-08-01T13:44:16;99357.97;;;21.76
53667;BMP280;39568;51.026;5.468;2023-08-01T13:46:43;99356.47;;;21.48
53667;BMP280;39568;51.026;5.468;2023-08-01T13:49:09;99363.91;;;21.23
53667;BMP280;39568;51.026;5.468;2023-08-01T13:51:39;99371.69;;;21.17
53667;BMP280;39568;51.026;5.468;2023-08-01T13:54:06;99379.84;;;21.05
53667;BMP280;39568;51.026;5.468;2023-08-01T13:56:33;99376.66;;;21.09
53667;BMP280;39568;51.026;5.468;2023-08-01T13:59:00;99380.19;;;21.36
53667;BMP280;39568;51.026;5.468;2023-08-01T14:01:26;99379.06;;;21.53
53667;BMP280;39568;51.026;5.468;2023-08-01T14:03:53;99381.66;;;22.03
53667;BMP280;39568;51.026;5.468;2023-08-01T14:06:19;99389.03;;;22.84
53667;BMP280;39568;51.026;5.468;2023-08-01T14:08:47;99384.38;;;24.23
53667;BMP280;39568;51.026;5.468;2023-08-01T14:11:14;99386.38;;;24.55